sensor_id;sensor_type;location;lat;lon;timestamp;P1;durP1;ratioP1;P2;durP2;ratioP2
28481;SDS011;15703;49.588;6.260;2023-08-01T00:00:59;3.60;;;2.53;;
28481;SDS011;15703;49.588;6.260;2023-08-01T00:03:22;5.38;;;3.25;;
28481;SDS011;15703;49.588;6.260;2023-08-01T00:05:44;6.90;;;2.83;;
28481;SDS011;15703;49.588;6.260;2023-08-01T00:08:07;5.60;;;3.15;;
28481;SDS011;15703;49.588;6.260;2023-08-01T00:10:29;5.30;;;2.90;;
28481;SDS011;15703;49.588;6.260;2023-08-01T00:12:51;5.75;;;3.70;;
28481;SDS011;15703;49.588;6.260;2023-08-01T00:15:14;6.35;;;2.83;;
28481;SDS011;15703;49.588;6.260;2023-08-01T00:17:36;5.13;;;3.50;;
28481;SDS011;15703;49.588;6.260;2023-08-01T00:19:59;4.82;;;3.05;;
28481;SDS011;15703;49.588;6.260;2023-08-01T00:22:22;8.85;;;4.00;;
28481;SDS011;15703;49.588;6.260;2023-08-01T00:24:44;5.45;;;3.30;;
28481;SDS011;15703;49.588;6.260;2023-08-01T00:27:08;5.88;;;3.22;;
28481;SDS011;15703;49.588;6.260;2023-08-01T00:29:32;3.90;;;3.22;;
28481;SDS011;15703;49.588;6.260;2023-08-01T00:31:54;4.47;;;2.83;;
28481;SDS011;15703;49.588;6.260;2023-08-01T00:34:16;3.75;;;2.90;;
28481;SDS011;15703;49.588;6.260;2023-08-01T00:36:39;3.65;;;2.47;;
28481;SDS011;15703;49.588;6.260;2023-08-01T00:39:01;4.38;;;2.90;;
28481;SDS011;15703;49.588;6.260;2023-08-01T00:41:24;6.72;;;3.05;;
28481;SDS011;15703;49.588;6.260;2023-08-01T00:43:46;2.80;;;2.20;;
28481;SDS011;15703;49.588;6.260;2023-08-01T00:46:09;3.38;;;2.28;;
28481;SDS011;15703;49.588;6.260;2023-08-01T00:48:31;2.13;;;1.92;;
28481;SDS011;15703;49.588;6.260;2023-08-01T00:50:54;3.53;;;2.20;;
28481;SDS011;15703;49.588;6.260;2023-08-01T00:53:17;3.45;;;1.83;;
28481;SDS011;15703;49.588;6.260;2023-08-01T00:55:40;3.47;;;1.90;;
28481;SDS011;15703;49.588;6.260;2023-08-01T00:58:02;2.60;;;1.88;;
28481;SDS011;15703;49.588;6.260;2023-08-01T01:00:25;2.80;;;1.83;;
28481;SDS011;15703;49.588;6.260;2023-08-01T01:02:47;8.13;;;1.90;;
28481;SDS011;15703;49.588;6.260;2023-08-01T01:05:10;2.22;;;1.80;;
28481;SDS011;15703;49.588;6.260;2023-08-01T01:07:32;3.33;;;1.83;;
28481;SDS011;15703;49.588;6.260;2023-08-01T01:09:55;1.20;;;1.10;;
28481;SDS011;15703;49.588;6.260;2023-08-01T01:12:17;3.58;;;1.92;;
28481;SDS011;15703;49.588;6.260;2023-08-01T01:14:39;3.30;;;1.80;;
28481;SDS011;15703;49.588;6.260;2023-08-01T01:17:02;3.08;;;2.25;;
28481;SDS011;15703;49.588;6.260;2023-08-01T01:19:24;3.53;;;2.10;;
28481;SDS011;15703;49.588;6.260;2023-08-01T01:21:46;6.20;;;2.85;;
28481;SDS011;15703;49.588;6.260;2023-08-01T01:24:10;3.45;;;2.45;;
28481;SDS011;15703;49.588;6.260;2023-08-01T01:26:33;3.20;;;2.80;;
28481;SDS011;15703;49.588;6.260;2023-08-01T01:28:56;3.92;;;2.97;;
28481;SDS011;15703;49.588;6.260;2023-08-01T01:31:18;7.20;;;3.10;;
28481;SDS011;15703;49.588;6.260;2023-08-01T01:33:41;4.38;;;3.28;;
28481;SDS011;15703;49.588;6.260;2023-08-01T01:36:04;6.15;;;3.70;;
28481;SDS011;15703;49.588;6.260;2023-08-01T01:38:26;5.88;;;3.95;;
28481;SDS011;15703;49.588;6.260;2023-08-01T01:40:48;4.82;;;3.63;;
28481;SDS011;15703;49.588;6.260;2023-08-01T01:43:10;4.97;;;3.67;;
28481;SDS011;15703;49.588;6.260;2023-08-01T01:45:33;5.45;;;3.40;;
28481;SDS011;15703;49.588;6.260;2023-08-01T01:47:56;5.47;;;3.30;;
28481;SDS011;15703;49.588;6.260;2023-08-01T01:50:18;3.67;;;2.90;;
28481;SDS011;15703;49.588;6.260;2023-08-01T01:52:41;3.00;;;2.75;;
28481;SDS011;15703;49.588;6.260;2023-08-01T01:55:03;5.97;;;3.22;;
28481;SDS011;15703;49.588;6.260;2023-08-01T01:57:26;4.20;;;3.10;;
28481;SDS011;15703;49.588;6.260;2023-08-01T01:59:49;6.60;;;3.00;;
28481;SDS011;15703;49.588;6.260;2023-08-01T02:02:11;5.25;;;2.75;;
28481;SDS011;15703;49.588;6.260;2023-08-01T02:04:34;6.30;;;3.45;;
28481;SDS011;15703;49.588;6.260;2023-08-01T02:06:56;5.55;;;2.60;;
28481;SDS011;15703;49.588;6.260;2023-08-01T02:09:18;2.80;;;2.28;;
28481;SDS011;15703;49.588;6.260;2023-08-01T02:11:41;2.10;;;1.90;;
28481;SDS011;15703;49.588;6.260;2023-08-01T02:14:03;3.42;;;2.05;;
28481;SDS011;15703;49.588;6.260;2023-08-01T02:16:25;3.53;;;2.13;;
28481;SDS011;15703;49.588;6.260;2023-08-01T02:18:48;3.70;;;2.45;;
28481;SDS011;15703;49.588;6.260;2023-08-01T02:21:10;4.97;;;2.28;;
28481;SDS011;15703;49.588;6.260;2023-08-01T02:23:32;3.15;;;2.00;;
28481;SDS011;15703;49.588;6.260;2023-08-01T02:25:57;2.17;;;1.80;;
28481;SDS011;15703;49.588;6.260;2023-08-01T02:28:20;2.88;;;2.05;;
28481;SDS011;15703;49.588;6.260;2023-08-01T02:30:42;2.10;;;1.90;;
28481;SDS011;15703;49.588;6.260;2023-08-01T02:33:04;1.92;;;1.80;;
28481;SDS011;15703;49.588;6.260;2023-08-01T02:35:27;2.42;;;1.83;;
28481;SDS011;15703;49.588;6.260;2023-08-01T02:37:50;2.75;;;1.75;;
28481;SDS011;15703;49.588;6.260;2023-08-01T02:40:13;2.53;;;1.63;;
28481;SDS011;15703;49.588;6.260;2023-08-01T02:42:35;1.50;;;1.40;;
28481;SDS011;15703;49.588;6.260;2023-08-01T02:44:57;1.40;;;1.30;;
28481;SDS011;15703;49.588;6.260;2023-08-01T02:47:20;1.60;;;1.50;;
28481;SDS011;15703;49.588;6.260;2023-08-01T02:49:42;2.28;;;1.52;;
28481;SDS011;15703;49.588;6.260;2023-08-01T02:52:04;2.13;;;1.48;;
28481;SDS011;15703;49.588;6.260;2023-08-01T02:54:27;1.55;;;1.45;;
28481;SDS011;15703;49.588;6.260;2023-08-01T02:56:55;1.58;;;1.23;;
28481;SDS011;15703;49.588;6.260;2023-08-01T02:59:18;1.83;;;1.33;;
28481;SDS011;15703;49.588;6.260;2023-08-01T03:01:40;1.50;;;1.40;;
28481;SDS011;15703;49.588;6.260;2023-08-01T03:04:03;2.72;;;1.02;;
28481;SDS011;15703;49.588;6.260;2023-08-01T03:06:26;1.30;;;1.20;;
28481;SDS011;15703;49.588;6.260;2023-08-01T03:08:48;1.67;;;1.17;;
28481;SDS011;15703;49.588;6.260;2023-08-01T03:11:11;2.08;;;1.10;;
28481;SDS011;15703;49.588;6.260;2023-08-01T03:13:33;1.08;;;1.00;;
28481;SDS011;15703;49.588;6.260;2023-08-01T03:15:55;2.78;;;1.00;;
28481;SDS011;15703;49.588;6.260;2023-08-01T03:18:18;2.38;;;1.08;;
28481;SDS011;15703;49.588;6.260;2023-08-01T03:20:40;1.42;;;1.30;;
28481;SDS011;15703;49.588;6.260;2023-08-01T03:23:03;1.00;;;0.88;;
28481;SDS011;15703;49.588;6.260;2023-08-01T03:25:25;0.75;;;0.75;;
28481;SDS011;15703;49.588;6.260;2023-08-01T03:27:49;4.85;;;1.20;;
28481;SDS011;15703;49.588;6.260;2023-08-01T03:30:11;1.45;;;0.98;;
28481;SDS011;15703;49.588;6.260;2023-08-01T03:32:35;1.45;;;1.10;;
28481;SDS011;15703;49.588;6.260;2023-08-01T03:34:58;1.30;;;1.15;;
28481;SDS011;15703;49.588;6.260;2023-08-01T03:37:20;2.15;;;0.85;;
28481;SDS011;15703;49.588;6.260;2023-08-01T03:39:43;1.80;;;0.90;;
28481;SDS011;15703;49.588;6.260;2023-08-01T03:42:06;0.77;;;0.73;;
28481;SDS011;15703;49.588;6.260;2023-08-01T03:44:29;1.80;;;0.85;;
28481;SDS011;15703;49.588;6.260;2023-08-01T03:46:53;0.70;;;0.70;;
28481;SDS011;15703;49.588;6.260;2023-08-01T03:49:15;0.68;;;0.68;;
28481;SDS011;15703;49.588;6.260;2023-08-01T03:51:38;1.08;;;1.00;;
28481;SDS011;15703;49.588;6.260;2023-08-01T03:54:00;1.83;;;0.70;;
28481;SDS011;15703;49.588;6.260;2023-08-01T03:56:34;1.85;;;0.90;;
28481;SDS011;15703;49.588;6.260;2023-08-01T03:58:56;0.63;;;0.63;;
28481;SDS011;15703;49.588;6.260;2023-08-01T04:01:19;1.75;;;0.70;;
28481;SDS011;15703;49.588;6.260;2023-08-01T04:03:41;2.05;;;0.70;;
28481;SDS011;15703;49.588;6.260;2023-08-01T04:06:03;0.93;;;0.57;;
28481;SDS011;15703;49.588;6.260;2023-08-01T04:08:26;1.00;;;0.80;;
28481;SDS011;15703;49.588;6.260;2023-08-01T04:10:48;0.93;;;0.60;;
28481;SDS011;15703;49.588;6.260;2023-08-01T04:13:14;0.50;;;0.50;;
28481;SDS011;15703;49.588;6.260;2023-08-01T04:15:37;1.17;;;0.70;;
28481;SDS011;15703;49.588;6.260;2023-08-01T04:17:59;2.47;;;0.80;;
28481;SDS011;15703;49.588;6.260;2023-08-01T04:20:21;0.70;;;0.40;;
28481;SDS011;15703;49.588;6.260;2023-08-01T04:22:43;1.58;;;0.47;;
28481;SDS011;15703;49.588;6.260;2023-08-01T04:25:06;0.60;;;0.60;;
28481;SDS011;15703;49.588;6.260;2023-08-01T04:27:28;0.80;;;0.60;;
28481;SDS011;15703;49.588;6.260;2023-08-01T04:29:52;1.85;;;0.55;;
28481;SDS011;15703;49.588;6.260;2023-08-01T04:32:15;0.60;;;0.60;;
28481;SDS011;15703;49.588;6.260;2023-08-01T04:34:37;1.75;;;0.50;;
28481;SDS011;15703;49.588;6.260;2023-08-01T04:37:00;5.90;;;0.85;;
28481;SDS011;15703;49.588;6.260;2023-08-01T04:39:22;0.50;;;0.50;;
28481;SDS011;15703;49.588;6.260;2023-08-01T04:41:44;0.60;;;0.60;;
28481;SDS011;15703;49.588;6.260;2023-08-01T04:44:06;0.75;;;0.75;;
28481;SDS011;15703;49.588;6.260;2023-08-01T04:46:29;0.60;;;0.50;;
28481;SDS011;15703;49.588;6.260;2023-08-01T04:48:51;0.60;;;0.60;;
28481;SDS011;15703;49.588;6.260;2023-08-01T04:51:14;0.73;;;0.60;;
28481;SDS011;15703;49.588;6.260;2023-08-01T04:53:36;0.50;;;0.50;;
28481;SDS011;15703;49.588;6.260;2023-08-01T04:55:58;0.55;;;0.55;;
28481;SDS011;15703;49.588;6.260;2023-08-01T04:58:21;0.50;;;0.50;;
28481;SDS011;15703;49.588;6.260;2023-08-01T05:00:43;0.80;;;0.55;;
28481;SDS011;15703;49.588;6.260;2023-08-01T05:03:05;0.70;;;0.65;;
28481;SDS011;15703;49.588;6.260;2023-08-01T05:05:28;0.88;;;0.55;;
28481;SDS011;15703;49.588;6.260;2023-08-01T05:07:50;1.25;;;0.50;;
28481;SDS011;15703;49.588;6.260;2023-08-01T05:10:12;0.45;;;0.40;;
28481;SDS011;15703;49.588;6.260;2023-08-01T05:12:37;0.40;;;0.40;;
28481;SDS011;15703;49.588;6.260;2023-08-01T05:15:00;0.50;;;0.50;;
28481;SDS011;15703;49.588;6.260;2023-08-01T05:17:22;0.30;;;0.30;;
28481;SDS011;15703;49.588;6.260;2023-08-01T05:19:44;0.22;;;0.22;;
28481;SDS011;15703;49.588;6.260;2023-08-01T05:22:06;0.32;;;0.32;;
28481;SDS011;15703;49.588;6.260;2023-08-01T05:24:29;0.65;;;0.57;;
28481;SDS011;15703;49.588;6.260;2023-08-01T05:26:51;0.47;;;0.30;;
28481;SDS011;15703;49.588;6.260;2023-08-01T05:29:13;0.90;;;0.45;;
28481;SDS011;15703;49.588;6.260;2023-08-01T05:31:36;0.77;;;0.50;;
28481;SDS011;15703;49.588;6.260;2023-08-01T05:34:01;0.40;;;0.40;;
28481;SDS011;15703;49.588;6.260;2023-08-01T05:36:24;1.48;;;0.50;;
28481;SDS011;15703;49.588;6.260;2023-08-01T05:38:46;0.30;;;0.30;;
28481;SDS011;15703;49.588;6.260;2023-08-01T05:41:08;0.40;;;0.40;;
28481;SDS011;15703;49.588;6.260;2023-08-01T05:43:31;1.48;;;0.30;;
28481;SDS011;15703;49.588;6.260;2023-08-01T05:45:54;0.50;;;0.50;;
28481;SDS011;15703;49.588;6.260;2023-08-01T05:48:16;0.60;;;0.60;;
28481;SDS011;15703;49.588;6.260;2023-08-01T05:50:39;2.22;;;0.85;;
28481;SDS011;15703;49.588;6.260;2023-08-01T05:53:01;1.10;;;0.73;;
28481;SDS011;15703;49.588;6.260;2023-08-01T05:55:23;1.50;;;1.40;;
28481;SDS011;15703;49.588;6.260;2023-08-01T05:57:46;1.00;;;0.82;;
28481;SDS011;15703;49.588;6.260;2023-08-01T06:00:10;1.05;;;0.95;;
28481;SDS011;15703;49.588;6.260;2023-08-01T06:02:32;2.28;;;1.10;;
28481;SDS011;15703;49.588;6.260;2023-08-01T06:04:57;3.10;;;1.30;;
28481;SDS011;15703;49.588;6.260;2023-08-01T06:07:20;2.13;;;1.58;;
28481;SDS011;15703;49.588;6.260;2023-08-01T06:09:44;0.75;;;0.75;;
28481;SDS011;15703;49.588;6.260;2023-08-01T06:12:06;1.70;;;1.00;;
28481;SDS011;15703;49.588;6.260;2023-08-01T06:14:29;2.05;;;0.98;;
28481;SDS011;15703;49.588;6.260;2023-08-01T06:16:51;1.85;;;0.90;;
28481;SDS011;15703;49.588;6.260;2023-08-01T06:19:14;1.17;;;0.98;;
28481;SDS011;15703;49.588;6.260;2023-08-01T06:21:36;0.80;;;0.80;;
28481;SDS011;15703;49.588;6.260;2023-08-01T06:23:58;1.88;;;1.00;;
28481;SDS011;15703;49.588;6.260;2023-08-01T06:26:21;2.30;;;0.90;;
28481;SDS011;15703;49.588;6.260;2023-08-01T06:28:43;1.25;;;0.85;;
28481;SDS011;15703;49.588;6.260;2023-08-01T06:31:05;0.75;;;0.57;;
28481;SDS011;15703;49.588;6.260;2023-08-01T06:33:28;2.08;;;0.70;;
28481;SDS011;15703;49.588;6.260;2023-08-01T06:35:50;0.65;;;0.63;;
28481;SDS011;15703;49.588;6.260;2023-08-01T06:38:12;1.52;;;0.80;;
28481;SDS011;15703;49.588;6.260;2023-08-01T06:40:35;1.33;;;0.80;;
28481;SDS011;15703;49.588;6.260;2023-08-01T06:42:57;2.22;;;0.90;;
28481;SDS011;15703;49.588;6.260;2023-08-01T06:45:19;2.28;;;1.20;;
28481;SDS011;15703;49.588;6.260;2023-08-01T06:47:42;2.17;;;1.20;;
28481;SDS011;15703;49.588;6.260;2023-08-01T06:50:04;2.65;;;0.90;;
28481;SDS011;15703;49.588;6.260;2023-08-01T06:52:27;1.88;;;1.00;;
28481;SDS011;15703;49.588;6.260;2023-08-01T06:54:50;2.55;;;1.25;;
28481;SDS011;15703;49.588;6.260;2023-08-01T06:57:12;3.17;;;0.90;;
28481;SDS011;15703;49.588;6.260;2023-08-01T06:59:34;2.78;;;1.40;;
28481;SDS011;15703;49.588;6.260;2023-08-01T07:01:57;2.40;;;1.55;;
28481;SDS011;15703;49.588;6.260;2023-08-01T07:04:19;1.55;;;1.00;;
28481;SDS011;15703;49.588;6.260;2023-08-01T07:06:41;3.38;;;1.70;;
28481;SDS011;15703;49.588;6.260;2023-08-01T07:09:04;4.45;;;1.75;;
28481;SDS011;15703;49.588;6.260;2023-08-01T07:11:26;3.45;;;1.38;;
28481;SDS011;15703;49.588;6.260;2023-08-01T07:13:49;1.98;;;1.30;;
28481;SDS011;15703;49.588;6.260;2023-08-01T07:16:11;2.38;;;1.80;;
28481;SDS011;15703;49.588;6.260;2023-08-01T07:18:33;3.40;;;1.92;;
28481;SDS011;15703;49.588;6.260;2023-08-01T07:20:59;3.70;;;2.15;;
28481;SDS011;15703;49.588;6.260;2023-08-01T07:23:22;3.72;;;1.67;;
28481;SDS011;15703;49.588;6.260;2023-08-01T07:25:44;1.77;;;1.60;;
28481;SDS011;15703;49.588;6.260;2023-08-01T07:28:06;8.50;;;2.08;;
28481;SDS011;15703;49.588;6.260;2023-08-01T07:30:29;2.33;;;1.50;;
28481;SDS011;15703;49.588;6.260;2023-08-01T07:32:51;3.10;;;1.70;;
28481;SDS011;15703;49.588;6.260;2023-08-01T07:35:13;2.65;;;1.35;;
28481;SDS011;15703;49.588;6.260;2023-08-01T07:37:36;4.22;;;1.73;;
28481;SDS011;15703;49.588;6.260;2023-08-01T07:39:59;2.75;;;1.77;;
28481;SDS011;15703;49.588;6.260;2023-08-01T07:42:22;4.43;;;1.95;;
28481;SDS011;15703;49.588;6.260;2023-08-01T07:44:44;7.35;;;2.35;;
28481;SDS011;15703;49.588;6.260;2023-08-01T07:47:06;2.08;;;1.70;;
28481;SDS011;15703;49.588;6.260;2023-08-01T07:49:29;4.05;;;1.92;;
28481;SDS011;15703;49.588;6.260;2023-08-01T07:51:51;4.32;;;1.30;;
28481;SDS011;15703;49.588;6.260;2023-08-01T07:54:14;3.08;;;1.67;;
28481;SDS011;15703;49.588;6.260;2023-08-01T07:56:36;3.90;;;1.45;;
28481;SDS011;15703;49.588;6.260;2023-08-01T07:58:59;4.03;;;1.70;;
28481;SDS011;15703;49.588;6.260;2023-08-01T08:01:21;3.65;;;2.10;;
28481;SDS011;15703;49.588;6.260;2023-08-01T08:03:44;4.03;;;2.15;;
28481;SDS011;15703;49.588;6.260;2023-08-01T08:06:06;4.57;;;1.80;;
28481;SDS011;15703;49.588;6.260;2023-08-01T08:08:28;5.95;;;3.58;;
28481;SDS011;15703;49.588;6.260;2023-08-01T08:10:51;3.42;;;2.17;;
28481;SDS011;15703;49.588;6.260;2023-08-01T08:13:13;3.65;;;2.22;;
28481;SDS011;15703;49.588;6.260;2023-08-01T08:15:35;2.53;;;1.80;;
28481;SDS011;15703;49.588;6.260;2023-08-01T08:17:57;3.70;;;2.05;;
28481;SDS011;15703;49.588;6.260;2023-08-01T08:20:20;3.97;;;1.98;;
28481;SDS011;15703;49.588;6.260;2023-08-01T08:22:42;3.17;;;1.48;;
28481;SDS011;15703;49.588;6.260;2023-08-01T08:25:04;4.75;;;2.10;;
28481;SDS011;15703;49.588;6.260;2023-08-01T08:27:27;2.92;;;1.90;;
28481;SDS011;15703;49.588;6.260;2023-08-01T08:29:50;3.92;;;2.10;;
28481;SDS011;15703;49.588;6.260;2023-08-01T08:32:12;7.03;;;1.85;;
28481;SDS011;15703;49.588;6.260;2023-08-01T08:34:35;2.58;;;2.10;;
28481;SDS011;15703;49.588;6.260;2023-08-01T08:36:57;5.38;;;1.90;;
28481;SDS011;15703;49.588;6.260;2023-08-01T08:39:20;4.47;;;1.95;;
28481;SDS011;15703;49.588;6.260;2023-08-01T08:41:45;5.25;;;1.92;;
28481;SDS011;15703;49.588;6.260;2023-08-01T08:44:08;3.22;;;1.90;;
28481;SDS011;15703;49.588;6.260;2023-08-01T08:46:31;5.20;;;2.20;;
28481;SDS011;15703;49.588;6.260;2023-08-01T08:48:56;3.30;;;1.95;;
28481;SDS011;15703;49.588;6.260;2023-08-01T08:51:18;4.20;;;1.73;;
28481;SDS011;15703;49.588;6.260;2023-08-01T08:53:41;3.45;;;2.20;;
28481;SDS011;15703;49.588;6.260;2023-08-01T08:56:04;3.53;;;1.92;;
28481;SDS011;15703;49.588;6.260;2023-08-01T08:58:29;3.53;;;2.17;;
28481;SDS011;15703;49.588;6.260;2023-08-01T09:00:53;4.38;;;2.28;;
28481;SDS011;15703;49.588;6.260;2023-08-01T09:03:15;5.78;;;2.85;;
28481;SDS011;15703;49.588;6.260;2023-08-01T09:05:49;3.83;;;2.10;;
28481;SDS011;15703;49.588;6.260;2023-08-01T09:08:15;6.30;;;2.03;;
28481;SDS011;15703;49.588;6.260;2023-08-01T09:10:38;5.05;;;2.30;;
28481;SDS011;15703;49.588;6.260;2023-08-01T09:13:00;3.28;;;1.77;;
28481;SDS011;15703;49.588;6.260;2023-08-01T09:15:24;4.10;;;2.20;;
28481;SDS011;15703;49.588;6.260;2023-08-01T09:17:51;4.13;;;1.90;;
28481;SDS011;15703;49.588;6.260;2023-08-01T09:20:14;5.60;;;2.35;;
28481;SDS011;15703;49.588;6.260;2023-08-01T09:22:46;4.45;;;2.05;;
28481;SDS011;15703;49.588;6.260;2023-08-01T09:25:08;4.50;;;2.00;;
28481;SDS011;15703;49.588;6.260;2023-08-01T09:27:32;5.15;;;2.00;;
28481;SDS011;15703;49.588;6.260;2023-08-01T09:30:04;3.28;;;1.98;;
28481;SDS011;15703;49.588;6.260;2023-08-01T09:32:26;3.80;;;2.22;;
28481;SDS011;15703;49.588;6.260;2023-08-01T09:34:57;4.80;;;2.20;;
28481;SDS011;15703;49.588;6.260;2023-08-01T09:37:21;3.50;;;2.15;;
28481;SDS011;15703;49.588;6.260;2023-08-01T09:39:43;5.07;;;2.10;;
28481;SDS011;15703;49.588;6.260;2023-08-01T09:42:08;3.58;;;2.10;;
28481;SDS011;15703;49.588;6.260;2023-08-01T09:44:30;4.30;;;1.95;;
28481;SDS011;15703;49.588;6.260;2023-08-01T09:46:56;4.90;;;2.20;;
28481;SDS011;15703;49.588;6.260;2023-08-01T09:49:18;2.97;;;1.92;;
28481;SDS011;15703;49.588;6.260;2023-08-01T09:51:47;3.92;;;1.77;;
28481;SDS011;15703;49.588;6.260;2023-08-01T09:54:13;4.97;;;2.67;;
28481;SDS011;15703;49.588;6.260;2023-08-01T09:56:35;6.07;;;2.40;;
28481;SDS011;15703;49.588;6.260;2023-08-01T09:58:57;3.25;;;2.15;;
28481;SDS011;15703;49.588;6.260;2023-08-01T10:01:22;3.78;;;1.80;;
28481;SDS011;15703;49.588;6.260;2023-08-01T10:03:46;3.47;;;2.05;;
28481;SDS011;15703;49.588;6.260;2023-08-01T10:06:09;4.80;;;2.30;;
28481;SDS011;15703;49.588;6.260;2023-08-01T10:08:33;5.28;;;2.22;;
28481;SDS011;15703;49.588;6.260;2023-08-01T10:10:56;5.45;;;2.13;;
28481;SDS011;15703;49.588;6.260;2023-08-01T10:13:18;3.80;;;2.00;;
28481;SDS011;15703;49.588;6.260;2023-08-01T10:15:42;2.58;;;1.75;;
28481;SDS011;15703;49.588;6.260;2023-08-01T10:18:05;8.15;;;1.90;;
28481;SDS011;15703;49.588;6.260;2023-08-01T10:20:29;4.32;;;2.05;;
28481;SDS011;15703;49.588;6.260;2023-08-01T10:22:52;3.95;;;1.90;;
28481;SDS011;15703;49.588;6.260;2023-08-01T10:25:16;4.72;;;2.17;;
28481;SDS011;15703;49.588;6.260;2023-08-01T10:27:40;4.10;;;2.10;;
28481;SDS011;15703;49.588;6.260;2023-08-01T10:30:03;6.40;;;2.50;;
28481;SDS011;15703;49.588;6.260;2023-08-01T10:32:35;4.13;;;2.17;;
28481;SDS011;15703;49.588;6.260;2023-08-01T10:34:58;4.97;;;2.40;;
28481;SDS011;15703;49.588;6.260;2023-08-01T10:37:20;5.68;;;2.38;;
28481;SDS011;15703;49.588;6.260;2023-08-01T10:39:42;3.63;;;1.73;;
28481;SDS011;15703;49.588;6.260;2023-08-01T10:42:05;4.15;;;1.80;;
28481;SDS011;15703;49.588;6.260;2023-08-01T10:44:28;4.15;;;2.20;;
28481;SDS011;15703;49.588;6.260;2023-08-01T10:46:53;5.00;;;2.10;;
28481;SDS011;15703;49.588;6.260;2023-08-01T10:49:16;4.53;;;1.83;;
28481;SDS011;15703;49.588;6.260;2023-08-01T10:51:38;5.47;;;1.95;;
28481;SDS011;15703;49.588;6.260;2023-08-01T10:54:01;5.63;;;2.42;;
28481;SDS011;15703;49.588;6.260;2023-08-01T10:56:24;3.38;;;2.08;;
28481;SDS011;15703;49.588;6.260;2023-08-01T10:58:46;4.53;;;1.80;;
28481;SDS011;15703;49.588;6.260;2023-08-01T11:01:09;4.47;;;1.80;;
28481;SDS011;15703;49.588;6.260;2023-08-01T11:03:38;3.55;;;1.95;;
28481;SDS011;15703;49.588;6.260;2023-08-01T11:06:01;3.10;;;1.88;;
28481;SDS011;15703;49.588;6.260;2023-08-01T11:08:33;2.40;;;1.67;;
28481;SDS011;15703;49.588;6.260;2023-08-01T11:10:57;3.65;;;1.80;;
28481;SDS011;15703;49.588;6.260;2023-08-01T11:13:19;4.10;;;1.65;;
28481;SDS011;15703;49.588;6.260;2023-08-01T11:15:42;4.53;;;1.58;;
28481;SDS011;15703;49.588;6.260;2023-08-01T11:18:05;4.40;;;1.55;;
28481;SDS011;15703;49.588;6.260;2023-08-01T11:20:27;4.80;;;1.77;;
28481;SDS011;15703;49.588;6.260;2023-08-01T11:25:12;3.65;;;1.65;;
28481;SDS011;15703;49.588;6.260;2023-08-01T11:27:34;4.32;;;1.80;;
28481;SDS011;15703;49.588;6.260;2023-08-01T11:29:57;4.13;;;1.70;;
28481;SDS011;15703;49.588;6.260;2023-08-01T11:32:19;2.80;;;1.60;;
28481;SDS011;15703;49.588;6.260;2023-08-01T11:34:42;4.70;;;1.73;;
28481;SDS011;15703;49.588;6.260;2023-08-01T11:37:10;2.72;;;1.65;;
28481;SDS011;15703;49.588;6.260;2023-08-01T11:39:33;2.78;;;1.00;;
28481;SDS011;15703;49.588;6.260;2023-08-01T11:41:56;2.03;;;1.33;;
28481;SDS011;15703;49.588;6.260;2023-08-01T11:44:22;6.10;;;1.80;;
28481;SDS011;15703;49.588;6.260;2023-08-01T11:46:45;4.50;;;1.55;;
28481;SDS011;15703;49.588;6.260;2023-08-01T11:49:08;1.98;;;1.20;;
28481;SDS011;15703;49.588;6.260;2023-08-01T11:51:30;3.20;;;1.40;;
28481;SDS011;15703;49.588;6.260;2023-08-01T11:54:01;2.55;;;1.48;;
28481;SDS011;15703;49.588;6.260;2023-08-01T11:56:23;5.28;;;1.63;;
28481;SDS011;15703;49.588;6.260;2023-08-01T11:58:46;4.30;;;1.33;;
28481;SDS011;15703;49.588;6.260;2023-08-01T12:01:09;2.75;;;1.65;;
28481;SDS011;15703;49.588;6.260;2023-08-01T12:03:32;3.88;;;1.73;;
28481;SDS011;15703;49.588;6.260;2023-08-01T12:06:04;2.65;;;1.55;;
28481;SDS011;15703;49.588;6.260;2023-08-01T12:08:31;2.67;;;1.80;;
28481;SDS011;15703;49.588;6.260;2023-08-01T12:10:56;4.80;;;1.75;;
28481;SDS011;15703;49.588;6.260;2023-08-01T12:13:22;4.25;;;1.58;;
28481;SDS011;15703;49.588;6.260;2023-08-01T12:15:46;2.65;;;1.48;;
28481;SDS011;15703;49.588;6.260;2023-08-01T12:18:09;2.10;;;1.35;;
28481;SDS011;15703;49.588;6.260;2023-08-01T12:20:31;2.47;;;1.15;;
28481;SDS011;15703;49.588;6.260;2023-08-01T12:22:53;3.58;;;1.35;;
28481;SDS011;15703;49.588;6.260;2023-08-01T12:25:16;3.38;;;1.50;;
28481;SDS011;15703;49.588;6.260;2023-08-01T12:27:38;7.72;;;1.80;;
28481;SDS011;15703;49.588;6.260;2023-08-01T12:30:00;2.95;;;1.70;;
28481;SDS011;15703;49.588;6.260;2023-08-01T12:32:22;4.32;;;1.73;;
28481;SDS011;15703;49.588;6.260;2023-08-01T12:34:45;3.65;;;1.15;;
28481;SDS011;15703;49.588;6.260;2023-08-01T12:37:07;1.48;;;1.15;;
28481;SDS011;15703;49.588;6.260;2023-08-01T12:39:30;2.40;;;1.25;;
28481;SDS011;15703;49.588;6.260;2023-08-01T12:41:52;1.63;;;0.95;;
28481;SDS011;15703;49.588;6.260;2023-08-01T12:44:15;2.38;;;1.30;;
28481;SDS011;15703;49.588;6.260;2023-08-01T12:46:38;4.25;;;1.55;;
28481;SDS011;15703;49.588;6.260;2023-08-01T12:49:01;4.70;;;1.40;;
28481;SDS011;15703;49.588;6.260;2023-08-01T12:51:23;2.35;;;1.33;;
28481;SDS011;15703;49.588;6.260;2023-08-01T12:53:46;4.72;;;1.30;;
28481;SDS011;15703;49.588;6.260;2023-08-01T12:56:08;4.30;;;1.35;;
28481;SDS011;15703;49.588;6.260;2023-08-01T12:58:31;3.42;;;1.80;;
28481;SDS011;15703;49.588;6.260;2023-08-01T13:00:53;1.92;;;1.30;;
28481;SDS011;15703;49.588;6.260;2023-08-01T13:03:15;5.07;;;1.45;;
28481;SDS011;15703;49.588;6.260;2023-08-01T13:05:38;4.90;;;1.55;;
28481;SDS011;15703;49.588;6.260;2023-08-01T13:08:01;4.05;;;1.70;;
28481;SDS011;15703;49.588;6.260;2023-08-01T13:10:23;3.35;;;1.30;;
28481;SDS011;15703;49.588;6.260;2023-08-01T13:12:46;2.97;;;1.55;;
28481;SDS011;15703;49.588;6.260;2023-08-01T13:15:08;2.80;;;1.40;;
28481;SDS011;15703;49.588;6.260;2023-08-01T13:17:38;3.90;;;1.70;;
28481;SDS011;15703;49.588;6.260;2023-08-01T13:20:00;3.65;;;1.52;;
28481;SDS011;15703;49.588;6.260;2023-08-01T13:22:23;4.18;;;2.03;;
28481;SDS011;15703;49.588;6.260;2023-08-01T13:24:45;5.35;;;1.70;;
28481;SDS011;15703;49.588;6.260;2023-08-01T13:27:08;7.07;;;1.80;;
28481;SDS011;15703;49.588;6.260;2023-08-01T13:29:31;4.13;;;1.77;;
28481;SDS011;15703;49.588;6.260;2023-08-01T13:31:53;2.83;;;1.80;;
28481;SDS011;15703;49.588;6.260;2023-08-01T13:34:16;4.38;;;1.90;;
28481;SDS011;15703;49.588;6.260;2023-08-01T13:36:39;2.13;;;1.55;;
28481;SDS011;15703;49.588;6.260;2023-08-01T13:39:01;2.70;;;1.73;;
28481;SDS011;15703;49.588;6.260;2023-08-01T13:41:24;6.00;;;1.88;;
28481;SDS011;15703;49.588;6.260;2023-08-01T13:43:46;3.17;;;1.75;;
28481;SDS011;15703;49.588;6.260;2023-08-01T13:46:12;3.13;;;1.95;;
28481;SDS011;15703;49.588;6.260;2023-08-01T13:48:49;5.68;;;2.15;;
28481;SDS011;15703;49.588;6.260;2023-08-01T13:51:12;5.05;;;1.90;;
28481;SDS011;15703;49.588;6.260;2023-08-01T13:53:34;4.50;;;1.60;;
28481;SDS011;15703;49.588;6.260;2023-08-01T13:56:01;4.43;;;2.00;;
28481;SDS011;15703;49.588;6.260;2023-08-01T13:58:24;6.53;;;2.65;;
28481;SDS011;15703;49.588;6.260;2023-08-01T14:00:46;4.40;;;2.30;;
28481;SDS011;15703;49.588;6.260;2023-08-01T14:03:09;6.03;;;2.53;;
28481;SDS011;15703;49.588;6.260;2023-08-01T14:05:31;4.90;;;1.75;;
28481;SDS011;15703;49.588;6.260;2023-08-01T14:07:53;3.88;;;1.60;;
28481;SDS011;15703;49.588;6.260;2023-08-01T14:10:16;5.10;;;1.88;;
28481;SDS011;15703;49.588;6.260;2023-08-01T14:12:38;6.55;;;2.05;;
28481;SDS011;15703;49.588;6.260;2023-08-01T14:15:01;3.05;;;1.77;;
28481;SDS011;15703;49.588;6.260;2023-08-01T14:17:23;3.78;;;1.85;;
28481;SDS011;15703;49.588;6.260;2023-08-01T14:19:46;3.70;;;1.80;;
28481;SDS011;15703;49.588;6.260;2023-08-01T14:22:08;4.28;;;1.80;;
28481;SDS011;15703;49.588;6.260;2023-08-01T14:24:30;6.80;;;1.95;;